Map

Track Data

SID SEASON NUMBER BASIN SUBBASIN NAME ISO_TIME NATURE LAT LON WMO_WIND WMO_PRES WMO_AGENCY TRACK_TYPE DIST2LAND LANDFALL IFLAG USA_AGENCY USA_ATCF_ID USA_LAT USA_LON USA_RECORD USA_STATUS USA_WIND USA_PRES USA_SSHS USA_R34_NE USA_R34_SE USA_R34_SW USA_R34_NW USA_R50_NE USA_R50_SE USA_R50_SW USA_R50_NW USA_R64_NE USA_R64_SE USA_R64_SW USA_R64_NW USA_POCI USA_ROCI USA_RMW USA_EYE TOKYO_LAT TOKYO_LON TOKYO_GRADE TOKYO_WIND TOKYO_PRES TOKYO_R50_DIR TOKYO_R50_LONG TOKYO_R50_SHORT TOKYO_R30_DIR TOKYO_R30_LONG TOKYO_R30_SHORT TOKYO_LAND CMA_LAT CMA_LON CMA_CAT CMA_WIND CMA_PRES HKO_LAT HKO_LON HKO_CAT HKO_WIND HKO_PRES NEWDELHI_LAT NEWDELHI_LON NEWDELHI_GRADE NEWDELHI_WIND NEWDELHI_PRES NEWDELHI_CI NEWDELHI_DP NEWDELHI_POCI REUNION_LAT REUNION_LON REUNION_TYPE REUNION_WIND REUNION_PRES REUNION_TNUM REUNION_CI REUNION_RMW REUNION_R34_NE REUNION_R34_SE REUNION_R34_SW REUNION_R34_NW REUNION_R50_NE REUNION_R50_SE REUNION_R50_SW REUNION_R50_NW REUNION_R64_NE REUNION_R64_SE REUNION_R64_SW REUNION_R64_NW BOM_LAT BOM_LON BOM_TYPE BOM_WIND BOM_PRES BOM_TNUM BOM_CI BOM_RMW BOM_R34_NE BOM_R34_SE BOM_R34_SW BOM_R34_NW BOM_R50_NE BOM_R50_SE BOM_R50_SW BOM_R50_NW BOM_R64_NE BOM_R64_SE BOM_R64_SW BOM_R64_NW BOM_ROCI BOM_POCI BOM_EYE BOM_POS_METHOD BOM_PRES_METHOD NADI_LAT NADI_LON NADI_CAT NADI_WIND NADI_PRES WELLINGTON_LAT WELLINGTON_LON WELLINGTON_WIND WELLINGTON_PRES DS824_LAT DS824_LON DS824_STAGE DS824_WIND DS824_PRES TD9636_LAT TD9636_LON TD9636_STAGE TD9636_WIND TD9636_PRES TD9635_LAT TD9635_LON TD9635_WIND TD9635_PRES TD9635_ROCI NEUMANN_LAT NEUMANN_LON NEUMANN_CLASS NEUMANN_WIND NEUMANN_PRES MLC_LAT MLC_LON MLC_CLASS MLC_WIND MLC_PRES USA_GUST BOM_GUST BOM_GUST_PER REUNION_GUST REUNION_GUST_PER USA_SEAHGT USA_SEARAD_NE USA_SEARAD_SE USA_SEARAD_SW USA_SEARAD_NW STORM_SPEED STORM_DIR
1971281N16134 1971 135 WP MM FAYE(GLORIA) 1971-10-07 18:00:00 TS 15.8032 133.758 spur-other 982 894 O________O_O__ jtwc_wp WP311971 15.8000 133.800 30 -1 15.8000 133.800 TC 30 15.8000 133.800 30 999 120 17 268
1971281N16134 1971 135 WP MM FAYE(GLORIA) 1971-10-07 21:00:00 TS 15.7749 132.860 spur-other 894 809 P________P_P__ WP311971 15.7659 132.867 27 -1 15.7659 132.867 TC 27 15.7659 132.867 27 999 120 17 270
1971281N16134 1971 135 WP MM FAYE(GLORIA) 1971-10-08 00:00:00 TS 15.8000 132.000 spur-other 809 750 O________OOO__ jtwc_wp WP311971 15.8000 132.000 25 -1 15.8000 132.000 TC 25 15.8000 132.000 1 25 15.8000 132.000 25 999 120 15 276
1971281N16134 1971 135 WP MM FAYE(GLORIA) 1971-10-08 03:00:00 TS 15.9232 131.264 spur-other 750 704 P________PPP__ WP311971 15.9422 131.248 25 -1 15.9422 131.248 TC 25 15.8858 131.372 1 23 15.9422 131.248 25 999 120 14 281
1971281N16134 1971 135 WP MM FAYE(GLORIA) 1971-10-08 06:00:00 TS 16.0670 130.621 spur-other 702 660 O________OPO__ jtwc_wp WP311971 16.1000 130.600 25 -1 16.1000 130.600 TC 25 15.9766 130.744 1 22 16.1000 130.600 25 999 120 12 281
1971281N16134 1971 135 WP MM FAYE(GLORIA) 1971-10-08 09:00:00 TS 16.1392 130.054 spur-other 660 605 P________PPP__ WP311971 16.1570 130.042 22 -1 16.1570 130.042 TC 22 16.0791 130.120 1 21 16.1570 130.042 22 999 150 11 277
1971281N16134 1971 135 WP MM FAYE(GLORIA) 1971-10-08 12:00:00 TS 16.2000 129.500 spur-other 605 552 O________OOO__ jtwc_wp WP311971 16.2000 129.500 20 -1 16.2000 129.500 TC 20 16.2000 129.500 1 20 16.2000 129.500 20 999 180 12 278
1971281N16134 1971 135 WP MM FAYE(GLORIA) 1971-10-08 15:00:00 TS 16.3096 128.864 spur-other 552 503 P________PPP__ WP311971 16.3000 128.858 20 -1 16.3000 128.858 TC 20 16.3383 128.884 1 21 16.3000 128.858 20 999 180 13 280
1971281N16134 1971 135 WP MM FAYE(GLORIA) 1971-10-08 18:00:00 TS 16.4154 128.217 spur-other 494 458 O________OPO__ jtwc_wp WP311971 16.4000 128.200 20 -1 16.4000 128.200 TC 20 16.4615 128.267 1 22 16.4000 128.200 20 999 180 12 279
1971281N16134 1971 135 WP MM FAYE(GLORIA) 1971-10-08 21:00:00 TS 16.5031 127.622 spur-other 450 410 P________PPP__ WP311971 16.4946 127.615 22 -1 16.4946 127.615 TC 22 16.5289 127.641 1 23 16.4946 127.615 22 999 180 12 277
1971281N16134 1971 135 WP MM FAYE(GLORIA) 1971-10-09 00:00:00 TS 16.5529 126.959 spur-other 410 346 O__O_____OOO__ jtwc_wp WP311971 16.5000 127.000 25 -1 17.4000 126.300 TD 25 989 16.5000 127.000 TC 25 16.5000 127.000 1 25 16.5000 127.000 25 999 180 14 268
1971281N16134 1971 135 WP MM FAYE(GLORIA) 1971-10-09 03:00:00 TS 16.4591 126.184 spur-other 346 287 P__P_____PPP__ WP311971 16.3602 126.250 25 -1 17.3684 125.500 TD 25 988 16.3602 126.250 TC 25 16.3010 126.329 1 26 16.3602 126.250 25 998 180 15 259
1971281N16134 1971 135 WP MM FAYE(GLORIA) 1971-10-09 06:00:00 TS 16.2705 125.421 spur-other 283 230 O__O_____OPO__ jtwc_wp WP311971 16.1000 125.500 25 -1 17.3000 124.800 TD 25 988 16.1000 125.500 TC 25 16.0097 125.648 1 27 16.1000 125.500 25 998 180 14 252
1971281N16134 1971 135 WP MM FAYE(GLORIA) 1971-10-09 09:00:00 TS 16.0219 124.768 spur-other 230 190 P__P_____PPP__ WP311971 15.7497 124.870 27 -1 17.1720 124.263 TD 25 988 15.7497 124.870 TC 27 15.6885 124.967 1 28 15.7497 124.870 27 998 180 13 245
1971281N16134 1971 135 WP MM FAYE(GLORIA) 1971-10-09 12:00:00 TS 15.7200 124.200 spur-other 190 169 O__O_____OOO__ jtwc_wp WP311971 15.4000 124.300 30 -1 17.0000 123.800 TD 25 988 15.4000 124.300 TC 30 15.4000 124.300 1 30 15.4000 124.300 30 998 180 12 244
1971281N16134 1971 135 WP MM FAYE(GLORIA) 1971-10-09 15:00:00 TS 15.4996 123.642 spur-other 163 125 P__P_____PPP__ WP311971 15.1546 123.765 32 -1 16.8225 123.285 TD 27 987 15.1546 123.765 TC 32 15.2114 123.629 1 31 15.1546 123.765 32 998 180 12 250
1971281N16134 1971 135 WP MM FAYE(GLORIA) 1971-10-09 18:00:00 TS 15.3335 123.075 spur-other 125 102 O__O_____OPO__ jtwc_wp WP311971 15.0000 123.200 35 0 16.6000 122.800 TD 30 987 15.0000 123.200 TC 35 15.0675 122.976 1 32 15.0000 123.200 35 998 180 12 256
1971281N16134 1971 135 WP MM FAYE(GLORIA) 1971-10-09 21:00:00 TS 15.2066 122.440 spur-other 93 44 P__P_____PPP__ WP311971 14.9278 122.478 35 0 16.2847 122.407 TD 30 986 14.9278 122.478 TC 35 14.9647 122.360 1 33 14.9278 122.478 35 997 180 12 260
1971281N16134 1971 135 WP MM FAYE(GLORIA) 1971-10-10 00:00:00 TS 15.1200 121.840 spur-other 34 0 O__O_____OOO__ jtwc_wp WP311971 14.9000 121.800 35 0 16.0000 122.000 TD 30 986 14.9000 121.800 TC 35 14.9000 121.800 2 35 14.9000 121.800 35 997 180 10 261
1971281N16134 1971 135 WP MM FAYE(GLORIA) 1971-10-10 03:00:00 TS 15.0447 121.375 spur-other 0 0 P__P_____PPP__ WP311971 14.8346 121.362 37 0 15.8851 121.465 TD 32 986 14.8346 121.362 TC 37 14.8347 121.322 2 37 14.8346 121.362 37 996 180 9 262
1971281N16134 1971 135 WP MM FAYE(GLORIA) 1971-10-10 06:00:00 TS 15.0018 120.960 spur-other 0 0 O__O_____OPO__ jtwc_wp WP311971 14.8000 121.000 40 0 15.8000 120.900 TS 35 986 14.8000 121.000 TC 40 14.8088 120.898 2 40 14.8000 121.000 40 995 180 8 265
1971281N16134 1971 135 WP MM FAYE(GLORIA) 1971-10-10 09:00:00 TS 14.9686 120.517 spur-other 0 0 P__P_____PPP__ WP311971 14.8124 120.565 42 0 15.5773 120.392 TS 37 985 14.8124 120.565 TC 42 14.8286 120.500 2 42 14.8124 120.565 42 993 180 9 271
1971281N16134 1971 135 WP MM FAYE(GLORIA) 1971-10-10 12:00:00 TS 15.0238 120.076 spur-other 0 0 O_OO_____OOO__ jtwc_wp WP311971 14.9000 120.100 45 0 15.5000 120.400 1 29 990 15.4000 119.900 TS 40 985 14.9000 120.100 TC 45 14.9000 120.100 2 45 14.9000 120.100 45 991 180 9 283
1971281N16134 1971 135 WP MM FAYE(GLORIA) 1971-10-10 15:00:00 TS 15.1761 119.568 spur-other 39 39 P_PP_____PPP__ WP311971 15.0850 119.593 50 0 15.4007 119.850 1 33 987 15.4350 119.378 TS 45 984 15.0850 119.593 TC 50 15.0255 119.677 2 50 15.0850 119.593 50 989 180 10 288
1971281N16134 1971 135 WP MM FAYE(GLORIA) 1971-10-10 18:00:00 TS 15.3333 119.082 spur-other 86 86 O_OO_____OPO__ jtwc_wp WP311971 15.3000 119.100 55 0 15.3000 119.300 2 38 984 15.5000 118.900 STS 50 984 15.3000 119.100 TC 55 15.1937 119.231 2 55 15.3000 119.100 55 987 180 10 289
1971281N16134 1971 135 WP MM FAYE(GLORIA) 1971-10-10 21:00:00 TS 15.4903 118.603 spur-other 130 130 P_PP_____PPP__ WP311971 15.4675 118.677 60 0 15.3504 118.900 2 48 983 15.4425 118.520 STS 52 984 15.4675 118.677 TC 60 15.3901 118.770 2 60 15.4675 118.677 60 985 210 8 286
1971281N16134 1971 135 WP MM FAYE(GLORIA) 1971-10-11 00:00:00 TS 15.5364 118.327 spur-other 159 150 O_OO_____OOO__ jtwc_wp WP311971 15.6000 118.300 65 1 15.4000 118.500 3 58 982 15.3000 118.200 STS 55 984 15.6000 118.300 TC 65 15.6000 118.300 3 65 15.6000 118.300 65 984 240 2 223
1971281N16134 1971 135 WP MM FAYE(GLORIA) 1971-10-11 03:00:00 TS 15.3271 118.444 spur-other 159 ______________ WP311971 -1 3 STS TC 3 5 152

Digital Typhoon Data and Search

About IBTrACS Database

This database is a web-friendly format of International Best Track Archive for Climate Stewardship (IBTrACS), a global best track data archive curated by NOAA dating back to 1842.

Updated: 2021-10-21